Time;durP1;ratioP1;P1;durP2;ratioP2;P2;SDS_P1;SDS_P2;PMS_P1;PMS_P2;Temp;Humidity;BMP_temperature;BMP_pressure;BME280_temperature;BME280_humidity;BME280_pressure;Samples;Min_cycle;Max_cycle;Signal;HPM_P1;HPM_P2
2024/01/15 00:00:06;;;;;;;15.45;6.40;;;;;;;-1.71;85.31;98528.56;334180;28;4690;-73
2024/01/15 00:00:18;;;;;;;14.57;5.57;;;;;;;-1.79;85.46;98531.16;335447;28;18918;-73
2024/01/15 00:00:30;;;;;;;16.80;5.30;;;;;;;-1.73;86.13;98522.63;337116;28;5413;-73
2024/01/15 00:00:42;;;;;;;15.50;5.00;;;;;;;-1.72;86.01;98525.19;334311;28;14166;-73
2024/01/15 00:00:54;;;;;;;13.80;4.75;;;;;;;-1.64;85.74;98523.47;335959;28;4835;-73
2024/01/15 00:01:07;;;;;;;16.45;5.18;;;;;;;-1.67;85.56;98531.13;336349;28;4696;-73
2024/01/15 00:01:19;;;;;;;17.55;5.68;;;;;;;-1.72;85.94;98525.19;333408;28;18123;-73
2024/01/15 00:01:31;;;;;;;13.25;5.45;;;;;;;-1.76;86.03;98528.59;336264;28;4604;-73
2024/01/15 00:01:44;;;;;;;12.50;5.63;;;;;;;-1.75;85.99;98524.31;328792;28;13526;-73
2024/01/15 00:01:56;;;;;;;12.07;5.45;;;;;;;-1.73;85.55;98520.94;336300;28;4629;-73
2024/01/15 00:02:08;;;;;;;14.57;5.72;;;;;;;-1.68;85.77;98524.31;333927;28;13444;-73
2024/01/15 00:02:20;;;;;;;16.67;5.93;;;;;;;-1.68;85.54;98515.84;334273;28;4601;-73
2024/01/15 00:02:32;;;;;;;16.63;5.65;;;;;;;-1.68;86.00;98526.03;336493;28;5307;-73
2024/01/15 00:02:45;;;;;;;15.93;6.30;;;;;;;-1.76;85.98;98522.66;334619;28;18432;-73
2024/01/15 00:02:57;;;;;;;17.70;6.57;;;;;;;-1.73;85.78;98525.16;337997;28;5412;-73
2024/01/15 00:03:10;;;;;;;15.88;5.47;;;;;;;-1.72;86.13;98516.69;336178;28;19203;-73
2024/01/15 00:03:22;;;;;;;13.85;4.85;;;;;;;-1.73;85.85;98518.41;337549;28;5523;-73
2024/01/15 00:03:34;;;;;;;12.60;5.03;;;;;;;-1.68;86.20;98521.78;335873;28;13374;-74
2024/01/15 00:03:46;;;;;;;13.07;5.32;;;;;;;-1.58;85.79;98521.78;338578;28;4581;-73
2024/01/15 00:04:00;;;;;;;14.05;5.18;;;;;;;-1.58;85.28;98529.41;334646;28;16710;-73
2024/01/15 00:04:12;;;;;;;14.32;4.70;;;;;;;-1.56;85.08;98522.63;335929;28;4644;-73
2024/01/15 00:04:24;;;;;;;16.38;5.05;;;;;;;-1.55;85.62;98517.53;334617;28;13549;-73
2024/01/15 00:04:40;;;;;;;19.05;5.75;;;;;;;-1.56;85.56;98520.06;331579;28;4575;-73
2024/01/15 00:04:53;;;;;;;17.85;5.90;;;;;;;-1.62;85.35;98521.75;333877;28;19609;-73
2024/01/15 00:05:05;;;;;;;16.13;5.70;;;;;;;-1.64;85.73;98518.38;334055;28;16789;-73
2024/01/15 00:05:17;;;;;;;15.55;5.68;;;;;;;-1.72;85.73;98509.88;337099;28;5000;-73
2024/01/15 00:05:29;;;;;;;15.52;5.47;;;;;;;-1.73;85.69;98512.44;337311;28;4525;-73
2024/01/15 00:05:41;;;;;;;13.40;5.15;;;;;;;-1.73;85.76;98520.94;334516;28;18143;-75
2024/01/15 00:05:53;;;;;;;13.15;4.20;;;;;;;-1.64;85.78;98507.34;337430;28;4832;-75
2024/01/15 00:06:05;;;;;;;15.15;4.47;;;;;;;-1.63;85.62;98509.00;334721;28;4928;-75
2024/01/15 00:06:17;;;;;;;17.83;4.80;;;;;;;-1.55;85.24;98516.66;338558;28;5119;-75
2024/01/15 00:06:29;;;;;;;15.68;5.57;;;;;;;-1.57;85.37;98508.16;335642;28;14843;-75
2024/01/15 00:06:42;;;;;;;13.35;5.50;;;;;;;-1.51;85.25;98513.25;338329;28;5373;-75
2024/01/15 00:06:54;;;;;;;14.73;5.10;;;;;;;-1.50;85.34;98509.84;338060;28;5529;-75
2024/01/15 00:07:07;;;;;;;15.38;5.07;;;;;;;-1.53;85.18;98512.41;335060;28;17918;-76
2024/01/15 00:07:19;;;;;;;13.40;4.68;;;;;;;-1.68;85.42;98521.78;337191;28;4529;-75
2024/01/15 00:07:31;;;;;;;12.23;5.03;;;;;;;-1.68;85.84;98531.97;332354;28;4692;-76
2024/01/15 00:07:43;;;;;;;13.65;5.60;;;;;;;-1.69;85.55;98535.38;335497;28;17450;-76
2024/01/15 00:07:55;;;;;;;16.30;5.63;;;;;;;-1.64;86.07;98517.53;332593;28;4725;-75
2024/01/15 00:08:07;;;;;;;16.70;5.80;;;;;;;-1.63;85.75;98514.97;335023;28;18173;-75
2024/01/15 00:08:19;;;;;;;12.23;4.68;;;;;;;-1.61;85.60;98495.44;337498;28;4636;-76
2024/01/15 00:08:31;;;;;;;11.50;4.18;;;;;;;-1.58;85.49;98522.63;334962;28;17957;-75
2024/01/15 00:08:43;;;;;;;14.07;5.15;;;;;;;-1.56;85.13;98509.88;337628;28;4530;-75
2024/01/15 00:08:55;;;;;;;15.23;5.65;;;;;;;-1.64;85.27;98508.19;333019;28;4604;-75
2024/01/15 00:09:07;;;;;;;15.32;5.78;;;;;;;-1.72;85.33;98520.09;334913;28;19326;-75
2024/01/15 00:09:19;;;;;;;17.30;6.00;;;;;;;-1.72;85.85;98506.50;337174;28;5412;-75
2024/01/15 00:09:31;;;;;;;19.35;6.20;;;;;;;-1.67;85.78;98517.53;335310;28;4710;-75
2024/01/15 00:09:43;;;;;;;16.08;5.53;;;;;;;-1.64;85.96;98518.38;337861;28;5934;-75
2024/01/15 00:09:55;;;;;;;16.83;5.55;;;;;;;-1.72;85.84;98520.09;336615;28;4698;-75
2024/01/15 00:10:07;;;;;;;18.02;5.45;;;;;;;-1.73;85.72;98513.31;338499;28;4789;-76
2024/01/15 00:10:19;;;;;;;16.52;5.18;;;;;;;-1.75;86.00;98509.03;338693;28;4546;-76
2024/01/15 00:10:31;;;;;;;13.45;4.55;;;;;;;-1.73;86.23;98526.03;332108;28;6825;-75
2024/01/15 00:10:43;;;;;;;14.80;4.70;;;;;;;-1.78;85.96;98515.00;339107;28;4819;-75
2024/01/15 00:10:55;;;;;;;15.55;4.93;;;;;;;-1.79;86.08;98526.06;338719;28;4722;-75
2024/01/15 00:11:07;;;;;;;16.30;4.78;;;;;;;-1.82;86.55;98524.34;336485;28;5565;-75
2024/01/15 00:11:19;;;;;;;18.23;4.50;;;;;;;-1.78;86.22;98522.63;338755;28;4580;-75
2024/01/15 00:11:31;;;;;;;18.00;5.10;;;;;;;-1.69;86.21;98512.44;335896;28;11511;-75
2024/01/15 00:11:43;;;;;;;17.17;5.25;;;;;;;-1.61;86.39;98517.50;338808;28;4676;-75
2024/01/15 00:11:55;;;;;;;14.43;4.82;;;;;;;-1.61;86.02;98513.28;338766;28;5031;-75
2024/01/15 00:12:07;;;;;;;15.27;5.05;;;;;;;-1.57;86.08;98503.06;335086;28;5309;-76
2024/01/15 00:12:19;;;;;;;15.05;5.35;;;;;;;-1.65;85.74;98511.59;337386;28;4595;-75
2024/01/15 00:12:31;;;;;;;13.10;4.93;;;;;;;-1.70;85.97;98512.44;337474;28;5462;-75
2024/01/15 00:12:43;;;;;;;14.27;5.13;;;;;;;-1.71;86.28;98501.41;334877;28;18597;-75
2024/01/15 00:12:56;;;;;;;15.30;5.30;;;;;;;-1.67;86.31;98515.84;337347;28;5238;-75
2024/01/15 00:13:08;;;;;;;15.70;5.63;;;;;;;-1.63;85.79;98512.44;331392;28;16902;-75
2024/01/15 00:13:20;;;;;;;16.15;5.75;;;;;;;-1.61;86.09;98513.28;337214;28;5306;-75
2024/01/15 00:13:32;;;;;;;21.15;5.88;;;;;;;-1.67;85.81;98508.19;333018;28;5406;-75
2024/01/15 00:13:44;;;;;;;25.95;6.50;;;;;;;-1.73;85.67;98518.41;334776;28;18965;-75
2024/01/15 00:13:56;;;;;;;25.58;6.35;;;;;;;-1.84;86.48;98522.66;338058;28;4762;-75
2024/01/15 00:14:08;;;;;;;19.13;5.97;;;;;;;-1.84;86.73;98500.56;335816;28;17967;-75
2024/01/15 00:14:20;;;;;;;15.80;5.28;;;;;;;-1.79;86.24;98512.44;338347;28;4784;-76
2024/01/15 00:14:32;;;;;;;19.10;6.25;;;;;;;-1.90;87.02;98517.56;336511;28;5159;-75
2024/01/15 00:14:47;;;;;;;19.42;6.35;;;;;;;-1.87;86.57;98504.81;338784;28;5999;-75
2024/01/15 00:14:59;;;;;;;14.90;5.60;;;;;;;-1.83;87.04;98506.53;333209;28;17727;-75
2024/01/15 00:15:11;;;;;;;13.88;5.43;;;;;;;-1.86;86.88;98516.72;337086;28;17530;-76
2024/01/15 00:15:23;;;;;;;15.75;5.40;;;;;;;-1.81;87.06;98509.94;332901;28;4608;-75
2024/01/15 00:15:36;;;;;;;16.40;4.93;;;;;;;-1.72;86.80;98504.78;337884;28;18128;-75
2024/01/15 00:15:48;;;;;;;15.13;5.07;;;;;;;-1.73;86.24;98513.31;338770;28;4744;-75
2024/01/15 00:16:00;;;;;;;11.82;4.43;;;;;;;-1.71;86.72;98511.59;335894;28;18035;-75
2024/01/15 00:16:12;;;;;;;12.85;4.18;;;;;;;-1.68;86.42;98506.47;338258;28;4731;-75
2024/01/15 00:16:24;;;;;;;11.70;4.05;;;;;;;-1.79;86.61;98515.88;330121;28;16877;-76
2024/01/15 00:16:36;;;;;;;13.20;4.63;;;;;;;-1.74;86.39;98511.59;337878;28;4746;-75
2024/01/15 00:16:51;;;;;;;14.40;5.07;;;;;;;-1.74;87.01;98498.84;334665;28;13988;-75
2024/01/15 00:17:03;;;;;;;14.27;5.13;;;;;;;-1.71;86.92;98516.69;337868;28;5522;-75
2024/01/15 00:17:15;;;;;;;12.30;4.78;;;;;;;-1.65;86.67;98511.59;334816;28;18501;-75
2024/01/15 00:17:27;;;;;;;10.18;4.47;;;;;;;-1.78;86.19;98509.91;337652;28;4600;-75
2024/01/15 00:17:39;;;;;;;13.02;5.40;;;;;;;-1.80;86.70;98503.97;337060;28;19055;-75
2024/01/15 00:17:51;;;;;;;15.18;5.63;;;;;;;-1.82;86.90;98514.16;335291;28;18061;-75
2024/01/15 00:18:03;;;;;;;15.90;5.07;;;;;;;-1.82;86.79;98503.13;333451;28;4738;-75
2024/01/15 00:18:16;;;;;;;15.57;4.85;;;;;;;-1.81;86.99;98503.13;335273;28;7460;-75
2024/01/15 00:18:28;;;;;;;16.27;4.90;;;;;;;-1.73;86.74;98494.59;337453;28;5273;-76
2024/01/15 00:18:40;;;;;;;16.75;5.32;;;;;;;-1.73;87.17;98503.13;334620;28;17973;-75
2024/01/15 00:18:52;;;;;;;15.55;5.03;;;;;;;-1.74;86.70;98506.50;337568;28;4640;-75
2024/01/15 00:19:04;;;;;;;16.58;5.43;;;;;;;-1.71;86.63;98493.78;337003;28;4884;-75
2024/01/15 00:19:17;;;;;;;17.63;5.57;;;;;;;-1.72;87.12;98509.88;329911;28;18828;-76
2024/01/15 00:19:32;;;;;;;18.33;5.85;;;;;;;-1.68;86.84;98500.56;333664;28;6546;-75
2024/01/15 00:19:44;;;;;;;17.90;5.88;;;;;;;-1.72;86.49;98515.00;335870;28;4693;-76
2024/01/15 00:19:56;;;;;;;16.67;5.43;;;;;;;-1.71;86.73;98501.41;329530;28;18340;-75
2024/01/15 00:20:09;;;;;;;16.38;5.20;;;;;;;-1.74;86.38;98510.75;334827;28;4759;-76
2024/01/15 00:20:21;;;;;;;16.08;5.88;;;;;;;-1.86;86.68;98509.91;332529;28;18381;-76
2024/01/15 00:20:33;;;;;;;15.68;6.32;;;;;;;-1.85;86.75;98508.19;334680;28;4592;-75
2024/01/15 00:20:45;;;;;;;13.35;5.28;;;;;;;-1.82;87.14;98503.13;334406;28;4671;-76
2024/01/15 00:20:57;;;;;;;13.90;4.90;;;;;;;-1.89;86.89;98511.59;325894;29;17958;-75
2024/01/15 00:21:09;;;;;;;16.13;5.18;;;;;;;-1.80;86.86;98511.59;331973;29;5993;-76
2024/01/15 00:21:21;;;;;;;15.50;5.25;;;;;;;-1.75;86.78;98507.38;329700;29;19373;-76
2024/01/15 00:21:33;;;;;;;12.88;4.70;;;;;;;-1.76;87.26;98503.09;332264;29;5787;-76
2024/01/15 00:21:46;;;;;;;13.65;5.15;;;;;;;-1.77;87.08;98506.53;330173;29;13825;-75
2024/01/15 00:21:59;;;;;;;13.15;5.18;;;;;;;-1.76;86.90;98503.09;333673;29;4734;-75
2024/01/15 00:22:11;;;;;;;12.35;5.05;;;;;;;-1.76;86.99;98510.75;332799;29;16413;-75
2024/01/15 00:22:25;;;;;;;15.75;5.75;;;;;;;-1.72;86.92;98498.88;331667;29;18516;-76
2024/01/15 00:22:37;;;;;;;18.90;6.15;;;;;;;-1.67;86.89;98503.09;331594;29;17985;-76
2024/01/15 00:22:49;;;;;;;14.75;5.15;;;;;;;-1.63;86.52;98509.88;335216;29;4717;-75
2024/01/15 00:23:01;;;;;;;13.90;5.10;;;;;;;-1.69;86.32;98502.25;332841;28;17844;-76
2024/01/15 00:23:13;;;;;;;16.27;5.22;;;;;;;-1.73;86.93;98503.13;336857;28;4648;-75
2024/01/15 00:23:25;;;;;;;18.73;5.18;;;;;;;-1.74;86.92;98496.31;335585;28;5874;-75
2024/01/15 00:23:42;;;;;;;18.20;4.97;;;;;;;-1.73;87.07;98508.22;337656;28;5526;-75
2024/01/15 00:23:54;;;;;;;15.90;5.38;;;;;;;-1.72;87.02;98503.97;335657;28;18058;-76
2024/01/15 00:24:06;;;;;;;14.93;6.10;;;;;;;-1.71;87.03;98506.50;334982;28;16634;-76
2024/01/15 00:24:19;;;;;;;12.57;5.32;;;;;;;-1.69;86.61;98507.34;336676;28;4630;-76
2024/01/15 00:24:31;;;;;;;13.98;4.93;;;;;;;-1.73;87.03;98509.88;334081;28;18040;-75
2024/01/15 00:24:43;;;;;;;16.40;5.80;;;;;;;-1.74;87.07;98511.59;337249;28;4963;-75
2024/01/15 00:24:55;;;;;;;15.88;5.85;;;;;;;-1.75;86.87;98509.91;336089;28;12828;-75
2024/01/15 00:25:07;;;;;;;15.93;5.80;;;;;;;-1.77;86.80;98510.75;331039;28;4712;-75
2024/01/15 00:25:20;;;;;;;17.63;5.32;;;;;;;-1.75;87.25;98517.56;335823;28;17291;-76
2024/01/15 00:25:32;;;;;;;19.17;5.70;;;;;;;-1.75;87.11;98520.09;334768;28;16510;-75
2024/01/15 00:25:44;;;;;;;17.63;5.80;;;;;;;-1.72;86.93;98540.47;337877;28;5258;-75
2024/01/15 00:25:56;;;;;;;14.48;5.30;;;;;;;-1.66;86.76;98520.06;337145;28;5312;-75
2024/01/15 00:26:08;;;;;;;12.68;4.70;;;;;;;-1.61;86.38;98520.94;334882;28;17928;-76
2024/01/15 00:26:21;;;;;;;13.85;5.22;;;;;;;-1.67;86.47;98517.53;333878;28;12283;-75
2024/01/15 00:26:33;;;;;;;13.60;5.55;;;;;;;-1.66;86.38;98514.97;332098;28;4898;-75
2024/01/15 00:26:45;;;;;;;14.15;5.55;;;;;;;-1.61;86.58;98531.13;337483;28;5279;-76
2024/01/15 00:26:57;;;;;;;17.60;5.30;;;;;;;-1.68;86.00;98516.69;334733;28;18460;-75
2024/01/15 00:27:09;;;;;;;14.25;4.50;;;;;;;-1.69;86.38;98507.34;336373;28;4594;-75
2024/01/15 00:27:22;;;;;;;16.35;4.93;;;;;;;-1.66;86.68;98499.69;334605;28;13489;-76
2024/01/15 00:27:34;;;;;;;16.63;5.20;;;;;;;-1.62;86.11;98487.78;338583;28;5671;-76
2024/01/15 00:27:46;;;;;;;20.95;5.57;;;;;;;-1.58;86.42;98496.28;333838;28;4860;-76
2024/01/15 00:27:58;;;;;;;19.60;6.15;;;;;;;-1.63;86.29;98509.88;333737;28;19102;-75
2024/01/15 00:28:10;;;;;;;19.63;6.10;;;;;;;-1.72;86.27;98504.78;337154;28;5435;-76
2024/01/15 00:28:22;;;;;;;17.33;5.75;;;;;;;-1.69;86.12;98515.00;333125;28;19000;-75
2024/01/15 00:28:34;;;;;;;15.68;5.45;;;;;;;-1.74;86.39;98501.41;336300;28;4591;-76
2024/01/15 00:28:46;;;;;;;13.27;4.90;;;;;;;-1.68;86.68;98505.66;337710;28;5250;-76
2024/01/15 00:28:58;;;;;;;14.32;5.30;;;;;;;-1.80;86.83;98506.50;334510;28;18121;-76
2024/01/15 00:29:10;;;;;;;15.23;5.45;;;;;;;-1.89;87.04;98502.28;337200;28;5222;-76
2024/01/15 00:29:22;;;;;;;13.95;5.28;;;;;;;-1.84;87.07;98507.38;337733;28;4700;-76
2024/01/15 00:29:34;;;;;;;15.95;5.18;;;;;;;-1.77;87.13;98511.63;334535;28;18804;-76
2024/01/15 00:29:46;;;;;;;18.88;5.47;;;;;;;-1.83;87.25;98506.53;337598;28;4548;-76
2024/01/15 00:29:58;;;;;;;18.25;5.20;;;;;;;-1.83;87.17;98511.63;333544;28;17093;-76
2024/01/15 00:30:11;;;;;;;13.63;4.85;;;;;;;-1.88;87.61;98500.56;336348;28;5320;-76
2024/01/15 00:30:23;;;;;;;14.83;4.77;;;;;;;-1.92;87.60;98521.81;334480;28;17818;-76
2024/01/15 00:30:35;;;;;;;14.55;4.78;;;;;;;-1.88;87.50;98509.06;337578;28;5207;-76
2024/01/15 00:30:47;;;;;;;14.98;5.05;;;;;;;-1.81;87.58;98515.03;329512;28;13298;-75
2024/01/15 00:30:59;;;;;;;13.95;5.53;;;;;;;-1.80;87.05;98501.41;337620;28;4714;-75
2024/01/15 00:31:11;;;;;;;13.35;5.18;;;;;;;-1.84;87.73;98494.63;338247;28;4768;-76
2024/01/15 00:31:24;;;;;;;11.77;4.63;;;;;;;-1.82;87.18;98495.47;335881;28;18159;-75
2024/01/15 00:31:36;;;;;;;13.77;5.32;;;;;;;-1.77;87.17;98506.53;338513;28;5353;-75
2024/01/15 00:31:48;;;;;;;14.13;5.47;;;;;;;-1.73;86.96;98504.78;335363;28;17932;-76
2024/01/15 00:32:00;;;;;;;16.05;5.88;;;;;;;-1.61;87.27;98492.91;337172;28;4616;-76
2024/01/15 00:32:12;;;;;;;16.90;5.20;;;;;;;-1.66;86.52;98507.34;337495;28;5298;-76
2024/01/15 00:32:24;;;;;;;16.70;5.00;;;;;;;-1.68;87.03;98506.47;329296;28;18148;-75
2024/01/15 00:32:36;;;;;;;12.60;4.25;;;;;;;-1.64;86.55;98487.78;337378;28;4656;-76
2024/01/15 00:32:48;;;;;;;11.70;4.60;;;;;;;-1.58;86.75;98491.19;334520;28;4756;-76
2024/01/15 00:33:00;;;;;;;15.43;5.47;;;;;;;-1.56;86.16;98490.31;337089;28;5847;-76
2024/01/15 00:33:14;;;;;;;17.85;5.95;;;;;;;-1.59;86.33;98494.56;337207;28;4929;-76
2024/01/15 00:33:26;;;;;;;17.42;5.85;;;;;;;-1.69;86.66;98497.16;334216;28;17969;-75
2024/01/15 00:33:39;;;;;;;16.42;5.50;;;;;;;-1.71;86.50;98491.22;334332;28;11328;-76
2024/01/15 00:33:51;;;;;;;15.30;5.45;;;;;;;-1.69;86.79;98494.63;333471;28;18172;-75
2024/01/15 00:34:03;;;;;;;17.73;5.80;;;;;;;-1.67;86.48;98490.38;329209;28;4726;-75
2024/01/15 00:34:15;;;;;;;22.20;6.25;;;;;;;-1.68;86.81;98483.56;336900;28;4669;-75
2024/01/15 00:34:28;;;;;;;19.27;5.60;;;;;;;-1.72;87.08;98489.50;337479;28;9427;-76
2024/01/15 00:34:41;;;;;;;18.48;6.07;;;;;;;-1.67;87.13;98492.91;333871;28;18068;-76
2024/01/15 00:34:53;;;;;;;18.60;6.38;;;;;;;-1.68;87.09;98488.66;337143;28;4747;-76
2024/01/15 00:35:05;;;;;;;17.27;5.85;;;;;;;-1.66;86.47;98484.41;335291;28;17890;-76
2024/01/15 00:35:17;;;;;;;14.63;4.88;;;;;;;-1.71;86.43;98490.34;333594;28;4728;-76
2024/01/15 00:35:29;;;;;;;17.23;4.85;;;;;;;-1.76;86.62;98508.19;336448;28;4649;-75
2024/01/15 00:35:41;;;;;;;15.57;4.60;;;;;;;-1.77;86.68;98490.38;338844;28;4665;-75
2024/01/15 00:35:53;;;;;;;13.52;4.57;;;;;;;-1.71;86.99;98493.78;338725;28;4548;-76
2024/01/15 00:36:06;;;;;;;15.90;5.28;;;;;;;-1.64;86.91;98497.97;336570;28;5266;-76
2024/01/15 00:36:18;;;;;;;15.52;5.43;;;;;;;-1.62;86.78;98481.00;338813;28;4512;-76
2024/01/15 00:36:30;;;;;;;14.07;5.60;;;;;;;-1.59;86.47;98485.22;334453;28;18209;-76
2024/01/15 00:36:42;;;;;;;16.55;5.97;;;;;;;-1.63;86.74;98498.81;332832;28;4734;-76
2024/01/15 00:36:54;;;;;;;15.57;5.45;;;;;;;-1.57;86.08;98493.75;337473;28;5110;-76
2024/01/15 00:37:06;;;;;;;17.75;5.43;;;;;;;-1.56;86.15;98494.59;333162;28;18206;-76
2024/01/15 00:37:18;;;;;;;17.00;5.40;;;;;;;-1.51;86.55;98492.84;335389;28;4732;-75
2024/01/15 00:37:31;;;;;;;13.90;5.28;;;;;;;-1.51;86.27;98492.84;332672;28;18115;-75
2024/01/15 00:37:43;;;;;;;10.73;4.53;;;;;;;-1.57;86.32;98480.13;335533;28;4566;-76
2024/01/15 00:37:55;;;;;;;11.98;4.43;;;;;;;-1.63;86.01;98494.59;335641;28;16341;-76
2024/01/15 00:38:07;;;;;;;12.65;5.10;;;;;;;-1.69;86.34;98489.53;333251;28;18261;-76
2024/01/15 00:38:20;;;;;;;12.88;5.47;;;;;;;-1.59;86.09;98477.56;331770;28;5291;-76
2024/01/15 00:38:32;;;;;;;13.45;5.15;;;;;;;-1.55;86.25;98480.97;332823;28;17954;-76
2024/01/15 00:38:44;;;;;;;14.70;5.20;;;;;;;-1.59;86.01;98486.94;335938;28;5205;-75
2024/01/15 00:38:56;;;;;;;14.77;5.20;;;;;;;-1.58;85.81;98471.66;335050;28;4552;-76
2024/01/15 00:39:10;;;;;;;14.82;5.20;;;;;;;-1.59;85.94;98485.22;337486;28;5152;-75
2024/01/15 00:39:22;;;;;;;15.23;4.88;;;;;;;-1.51;85.97;98472.47;333276;28;18848;-75
2024/01/15 00:39:34;;;;;;;16.05;4.85;;;;;;;-1.55;85.52;98489.50;333050;28;4746;-76
2024/01/15 00:39:46;;;;;;;16.15;5.15;;;;;;;-1.53;85.88;98476.72;334533;28;18352;-76
2024/01/15 00:39:58;;;;;;;15.23;5.20;;;;;;;-1.56;86.04;98475.03;335954;28;5081;-76
2024/01/15 00:40:10;;;;;;;13.15;4.95;;;;;;;-1.66;85.82;98481.84;334150;28;5680;-75
2024/01/15 00:40:22;;;;;;;14.10;5.57;;;;;;;-1.67;86.26;98466.56;336292;28;7618;-75
2024/01/15 00:40:34;;;;;;;18.08;5.70;;;;;;;-1.61;86.43;98467.41;337953;28;4847;-75
2024/01/15 00:40:46;;;;;;;18.10;4.88;;;;;;;-1.70;86.17;98471.69;334406;28;4558;-76
2024/01/15 00:40:58;;;;;;;17.30;4.53;;;;;;;-1.79;86.25;98482.75;336547;28;5511;-75
2024/01/15 00:41:10;;;;;;;14.55;4.80;;;;;;;-1.81;86.75;98479.34;332081;28;5164;-76
2024/01/15 00:41:22;;;;;;;16.20;5.05;;;;;;;-1.80;86.35;98475.94;334292;28;12376;-75
2024/01/15 00:41:34;;;;;;;17.98;5.88;;;;;;;-1.78;86.93;98484.44;337154;28;4551;-75
2024/01/15 00:41:46;;;;;;;17.48;5.68;;;;;;;-1.74;86.41;98475.09;335508;28;14427;-75
2024/01/15 00:41:58;;;;;;;16.40;5.32;;;;;;;-1.74;86.93;98481.03;335614;28;18138;-76
2024/01/15 00:42:10;;;;;;;17.92;5.68;;;;;;;-1.66;86.47;98479.31;337359;28;4654;-75
2024/01/15 00:42:22;;;;;;;15.65;5.60;;;;;;;-1.65;86.47;98467.41;335070;28;5150;-76
2024/01/15 00:42:34;;;;;;;15.82;5.57;;;;;;;-1.66;86.44;98474.22;337103;28;5641;-76
2024/01/15 00:42:46;;;;;;;16.77;6.18;;;;;;;-1.59;86.26;98469.94;334708;28;5260;-76
2024/01/15 00:42:58;;;;;;;15.10;5.50;;;;;;;-1.58;86.45;98476.75;337059;28;5613;-76
2024/01/15 00:43:10;;;;;;;18.23;5.25;;;;;;;-1.64;86.16;98480.16;337592;28;4557;-76
2024/01/15 00:43:22;;;;;;;18.65;5.00;;;;;;;-1.61;86.09;98474.19;333675;28;18007;-75
2024/01/15 00:43:34;;;;;;;16.85;4.18;;;;;;;-1.61;86.06;98472.50;337326;28;4769;-76
2024/01/15 00:43:48;;;;;;;10.23;3.63;;;;;;;-1.59;85.64;98485.22;337646;28;4686;-75
2024/01/15 00:44:00;;;;;;;14.02;4.32;;;;;;;-1.65;86.17;98481.03;334406;28;18677;-75
2024/01/15 00:44:12;;;;;;;16.08;4.90;;;;;;;-1.66;85.72;98488.66;331472;28;5672;-75
2024/01/15 00:44:24;;;;;;;14.00;5.05;;;;;;;-1.65;86.01;98481.03;337414;28;4575;-75
2024/01/15 00:44:36;;;;;;;14.60;5.18;;;;;;;-1.72;85.97;98481.03;336739;28;8072;-76
2024/01/15 00:44:48;;;;;;;16.40;5.38;;;;;;;-1.79;86.28;98477.66;334264;28;18091;-75
2024/01/15 00:45:00;;;;;;;17.08;6.00;;;;;;;-1.78;86.57;98486.97;337375;28;5244;-75
2024/01/15 00:45:12;;;;;;;15.90;5.85;;;;;;;-1.85;86.69;98480.19;334726;28;5905;-75
2024/01/15 00:45:24;;;;;;;17.05;5.40;;;;;;;-1.87;86.70;98476.78;332071;28;4672;-75
2024/01/15 00:45:37;;;;;;;16.85;4.68;;;;;;;-1.89;87.09;98465.75;336176;28;4618;-75
2024/01/15 00:45:49;;;;;;;15.50;4.45;;;;;;;-1.84;87.06;98479.34;333445;28;18272;-76
2024/01/15 00:46:03;;;;;;;14.35;4.65;;;;;;;-1.79;86.72;98485.28;337398;28;4533;-76
2024/01/15 00:46:15;;;;;;;17.25;5.53;;;;;;;-1.73;86.94;98477.63;334306;28;18519;-76
2024/01/15 00:46:27;;;;;;;16.00;4.88;;;;;;;-1.77;86.63;98475.94;335061;28;5902;-76
2024/01/15 00:46:46;;;;;;;14.38;5.03;;;;;;;-1.74;86.98;98491.22;335024;28;17241;-75
2024/01/15 00:46:58;;;;;;;15.95;6.20;;;;;;;-1.82;86.77;98487.84;335870;28;18591;-75
2024/01/15 00:47:10;;;;;;;15.73;6.03;;;;;;;-1.73;87.00;98467.44;332071;29;17992;-75
2024/01/15 00:47:22;;;;;;;15.65;5.13;;;;;;;-1.66;86.64;98466.56;335421;28;4693;-76
2024/01/15 00:47:34;;;;;;;14.57;4.72;;;;;;;-1.65;86.52;98480.16;333785;28;17944;-75
2024/01/15 00:47:47;;;;;;;13.90;5.15;;;;;;;-1.66;86.29;98474.22;336439;28;4922;-76
2024/01/15 00:48:00;;;;;;;15.73;5.22;;;;;;;-1.71;86.13;98460.66;333305;28;16490;-76
2024/01/15 00:48:13;;;;;;;15.73;4.97;;;;;;;-1.73;86.36;98466.56;335391;28;4545;-76
2024/01/15 00:48:25;;;;;;;13.95;4.90;;;;;;;-1.77;86.10;98475.06;325422;28;18270;-76
2024/01/15 00:48:37;;;;;;;14.68;5.15;;;;;;;-1.77;86.59;98475.94;336091;28;4663;-76
2024/01/15 00:48:49;;;;;;;16.08;5.45;;;;;;;-1.75;86.44;98474.25;333935;28;6244;-76
2024/01/15 00:49:03;;;;;;;15.48;5.35;;;;;;;-1.74;86.78;98470.84;335499;28;4546;-76
2024/01/15 00:49:16;;;;;;;15.10;5.30;;;;;;;-1.76;86.50;98482.72;333127;28;18239;-75
2024/01/15 00:49:28;;;;;;;12.95;4.80;;;;;;;-1.88;86.62;98472.56;337137;28;4614;-76
2024/01/15 00:49:40;;;;;;;15.18;5.07;;;;;;;-1.79;87.17;98467.47;330203;28;18180;-76
2024/01/15 00:49:52;;;;;;;14.82;5.38;;;;;;;-1.91;87.11;98467.47;337000;28;5446;-76
2024/01/15 00:50:05;;;;;;;14.30;5.13;;;;;;;-1.86;87.16;98463.22;329693;28;14765;-75
2024/01/15 00:50:17;;;;;;;14.20;4.45;;;;;;;-1.85;86.76;98470.00;337183;28;4564;-76
2024/01/15 00:50:29;;;;;;;13.93;4.93;;;;;;;-1.89;87.35;98470.84;332951;28;17224;-75
2024/01/15 00:50:41;;;;;;;14.57;5.35;;;;;;;-1.86;87.35;98465.75;337434;28;5780;-75
2024/01/15 00:50:54;;;;;;;15.25;5.35;;;;;;;-1.87;87.51;98464.06;337753;28;5495;-76
2024/01/15 00:51:06;;;;;;;16.60;5.32;;;;;;;-1.80;87.56;98468.31;334615;28;18425;-76
2024/01/15 00:51:18;;;;;;;16.02;5.28;;;;;;;-1.80;87.18;98470.84;333032;28;5619;-76
2024/01/15 00:51:30;;;;;;;14.30;5.63;;;;;;;-1.81;87.23;98469.16;333630;28;6027;-75
2024/01/15 00:51:42;;;;;;;12.00;5.63;;;;;;;-1.82;86.96;98470.00;336636;28;5286;-75
2024/01/15 00:51:54;;;;;;;14.65;5.38;;;;;;;-1.77;86.91;98455.56;333143;28;13059;-76
2024/01/15 00:52:07;;;;;;;13.45;4.53;;;;;;;-1.62;86.75;98450.41;337631;28;4698;-75
2024/01/15 00:52:18;;;;;;;14.32;4.50;;;;;;;-1.73;86.59;98472.53;337185;28;5775;-76
2024/01/15 00:52:31;;;;;;;15.35;4.38;;;;;;;-1.72;86.76;98464.03;336383;28;18216;-75
2024/01/15 00:52:42;;;;;;;14.40;4.60;;;;;;;-1.73;86.56;98457.25;331537;28;4803;-76
2024/01/15 00:52:54;;;;;;;13.20;4.55;;;;;;;-1.73;86.70;98469.13;333881;28;13663;-76
2024/01/15 00:53:06;;;;;;;13.63;4.63;;;;;;;-1.84;87.00;98469.16;337300;28;4686;-75
2024/01/15 00:53:19;;;;;;;16.70;6.03;;;;;;;-1.80;86.94;98465.75;336976;28;4763;-75
2024/01/15 00:53:31;;;;;;;16.40;6.65;;;;;;;-1.72;87.08;98456.41;334081;28;18056;-76
2024/01/15 00:53:43;;;;;;;15.40;6.15;;;;;;;-1.73;86.51;98466.56;337060;28;4706;-76
2024/01/15 00:53:55;;;;;;;13.18;5.32;;;;;;;-1.76;86.71;98462.34;334148;28;13674;-75
2024/01/15 00:54:07;;;;;;;13.95;5.60;;;;;;;-1.74;86.75;98458.09;337318;28;5515;-75
2024/01/15 00:54:19;;;;;;;14.90;6.05;;;;;;;-1.73;86.43;98452.16;332760;28;4724;-76
2024/01/15 00:54:31;;;;;;;13.45;5.85;;;;;;;-1.70;86.38;98472.53;333538;28;18920;-76
2024/01/15 00:54:43;;;;;;;11.93;5.28;;;;;;;-1.68;85.87;98459.78;338300;28;4593;-75
2024/01/15 00:54:55;;;;;;;11.38;4.75;;;;;;;-1.62;86.71;98465.69;336127;28;13246;-75
2024/01/15 00:55:08;;;;;;;12.15;4.85;;;;;;;-1.69;86.43;98469.13;337416;28;4745;-75
2024/01/15 00:55:20;;;;;;;16.25;5.63;;;;;;;-1.72;86.02;98464.03;338395;28;5270;-76
2024/01/15 00:55:32;;;;;;;15.75;5.80;;;;;;;-1.70;86.17;98462.34;330417;28;18358;-76
2024/01/15 00:55:44;;;;;;;15.43;5.97;;;;;;;-1.83;86.87;98453.03;338799;28;4867;-75
2024/01/15 00:55:55;;;;;;;14.50;5.95;;;;;;;-1.80;86.46;98468.31;334971;28;14603;-75
2024/01/15 00:56:07;;;;;;;14.40;6.07;;;;;;;-1.70;86.58;98453.84;337444;28;5605;-75
2024/01/15 00:56:19;;;;;;;14.68;6.00;;;;;;;-1.65;86.31;98447.91;338093;28;4572;-76
2024/01/15 00:56:31;;;;;;;16.67;5.63;;;;;;;-1.65;85.96;98460.63;335399;28;18129;-76
2024/01/15 00:56:43;;;;;;;19.50;5.63;;;;;;;-1.63;86.39;98456.38;337878;28;4733;-75
2024/01/15 00:56:55;;;;;;;15.65;4.85;;;;;;;-1.64;85.92;98434.28;336899;28;10055;-76
2024/01/15 00:57:07;;;;;;;11.77;4.47;;;;;;;-1.70;86.33;98457.22;331276;28;18432;-76
2024/01/15 00:57:20;;;;;;;10.55;4.18;;;;;;;-1.72;86.12;98469.13;337494;28;4622;-75
2024/01/15 00:57:32;;;;;;;15.00;4.88;;;;;;;-1.72;86.24;98465.75;334788;28;13312;-75
2024/01/15 00:57:44;;;;;;;14.30;4.75;;;;;;;-1.73;86.39;98438.56;338728;28;4528;-75
2024/01/15 00:57:56;;;;;;;14.93;5.00;;;;;;;-1.66;86.24;98453.81;334706;28;14014;-75
2024/01/15 00:58:08;;;;;;;13.93;5.28;;;;;;;-1.63;86.29;98453.84;337161;28;4658;-75